首页
METAR-TAF:

METAR-TAF

机场 :

博韦, 法国

纬度: 49-28N, 经度: 002-07E, 海拔: 109米

当前天气观测

该预报发布于20分钟前的13:00 UTC
风速9节,风向南转西南
温度 18°C
湿度 88%
气压 1005 hPa
能见度10公里或以上

METAR: LFOB 231300Z AUTO 20009KT 9999 FEW029/// SCT054/// BKN096/// ///CB 18/16 Q1005 TEMPO 19020G35KT 2000 TSRA

时间: 15:20 (13:20 UTC)

预报

该预报发布于2小时和20分钟前的11:00 UTC
预报有效从23日的 12点(UTC)到 24日的 12点(UTC)
风速10节,风向南转西南
能见度10公里或以上
多云层高于3000英尺
短暂存在
从 23日的 12点(UTC)到 23日的 21点(UTC)
能見度: 4000
多云层高于3000英尺, 塔状积云.
阵雨
几率 40% :
短暂存在
从 23日的 12点(UTC)到 23日的 21点(UTC)
风速20节,风向,有时为35节阵风
能見度: 2000
多云层高于3000英尺, 积雨云.
雷暴, 雨
从 23日的 2100点(UTC)
风速15节,风向西,有时为25节阵风
能见度10公里或以上
散云层高于3000英尺
成为
从 23日的 21点(UTC)到 23日的 23点(UTC)
风速13节,风向西
成为
从 24日的 01点(UTC)到 24日的 04点(UTC)
风速13节,风向南转西南
短暂存在
从 24日的 09点(UTC)到 24日的 12点(UTC)
风速20节,风向南转西南,有时为30节阵风
能見度: 3000
多云层高于2500英尺, 塔状积云.
阵雨

TAF: LFOB 231100Z 2312/2412 20010KT 9999 BKN030 TEMPO 2312/2321 4000 SHRA BKN030TCU PROB40 TEMPO 2312/2321 19020G35KT 2000 TSRA BKN030CB FM232100 27015G25KT 9999 SCT030 BECMG 2321/2323 27013KT BECMG 2401/2404 20013KT TEMPO 2409/2412 20020G30KT 3000 SHRA BKN025TCU

超过4000个机场的气象观测和天气预报(METAR&TAF报告)。

可查询的气象台以黄色和红色小点在地图上表示。

将鼠标移到小点上方,可查看气象台名称。

然后点击查看天气观测和预报。

如需切换地图:点击带黑十字的绿色按钮放大地图;点击带横线的绿色按钮缩小地图;或者点击绿色箭头查看邻近地区的地图。


METAR-TAF: